EGPI/ILY METAR and TAF weather

Enter ICAO airport designator
Station Type Date Time Source
EGPI METAR 2020/09/19 03:20 UTC NOAA

EGPI 190320Z AUTO 31002KT 9999 NCD 10/07 Q1026


Station Type Date Time Source
EGPI Decoded METAR 2020/09/19 03:20 UTC NOAA

Islay, United Kingdom (EGPI) 55-40-55N 006-15-24W
Sep 18, 2020 - 11:20 PM EDT / 2020.09.19 0320 UTC
Wind: from the NW (310 degrees) at 2 MPH (2 KT):0
Visibility: greater than 7 mile(s):0
Temperature: 50 F (10 C)
Dew Point: 44 F (7 C)
Relative Humidity: 81%
Pressure (altimeter): 30.30 in. Hg (1026 hPa)
ob: EGPI 190320Z AUTO 31002KT 9999 NCD 10/07 Q1026
cycle: 3

Station Type Date Time Source
EGPI TAF UTC NOAA

Error!

Example: see airport list